Pesca Real — CUCD-5 — position and weather

sailwx.info

Track history (hours):
 
Tides and Currents Weather Stations Pressure Air Temp Water Temp Dewpoint Dewpoint Depression Visibility Wind Speed Wind Dir Waves Ship Positions

Pesca Real

Last reported at 2017-Nov-07 15:23 UTC. Time now 2017-Nov-20 13:58 UTC.
Position N 41°16' W 008°45'.
Warning: this ship's position is 12 days out of date.

Length 11 m.

Type: Fishing. MMSI: 263267000.

Date/timePositionNaut miles runAvg speedWind from/ knotsBaromVisibWave heightAir tempDewpointWater temp
2017-Nov-07 15:23N 41°16' W 008°45'3 8.7
2017-Nov-07 15:01N 41°13' W 008°44'4 8.8
2017-Nov-07 14:30N 41°09' W 008°43'10 0.7
2017-Nov-06 23:51N 40°59' W 008°41'3 9.0
2017-Nov-06 23:31N 41°03' W 008°41'5 9.2
2017-Nov-06 23:01N 41°07' W 008°42'4 7.6
2017-Nov-06 22:31N 41°11' W 008°42'9 0.4
2017-Nov-06 00:44N 41°02' W 008°43'2 9.6
2017-Nov-06 00:30N 41°04' W 008°43'5 9.5
2017-Nov-06 00:00N 41°09' W 008°42'2 3.5
2017-Nov-05 23:30N 41°11' W 008°42'  
2017-Nov-03 09:06N 41°11' W 008°42'0 0.0
2017-Nov-03 09:00N 41°11' W 008°42'0 0.0
2017-Nov-03 08:30N 41°11' W 008°42'0 0.0
2017-Nov-03 08:00N 41°11' W 008°42'0 0.0
2017-Nov-03 07:30N 41°11' W 008°42'0 0.0
2017-Nov-03 07:00N 41°11' W 008°42'0 0.0
2017-Nov-03 06:30N 41°11' W 008°42'0 0.0
2017-Nov-03 06:00N 41°11' W 008°42'0 0.0
2017-Nov-03 05:30N 41°11' W 008°42'0 0.0
2017-Nov-03 05:00N 41°11' W 008°42'0 0.0
2017-Nov-03 04:31N 41°11' W 008°42'1 2.2
2017-Nov-03 04:00N 41°10' W 008°42'9 2.0
2017-Nov-02 23:29N 41°01' W 008°42'4 8.5
2017-Nov-02 23:00N 41°05' W 008°43'4 8.5
2017-Nov-02 22:31N 41°09' W 008°43'2 3.6
2017-Nov-02 22:00N 41°11' W 008°42'0 0.0
2017-Nov-02 08:28N 41°11' W 008°42'0 0.0
2017-Nov-02 08:01N 41°11' W 008°42'0 0.0
2017-Nov-02 07:31N 41°11' W 008°42'0 0.0
2017-Nov-02 07:00N 41°11' W 008°42'0 0.0
2017-Nov-02 06:30N 41°11' W 008°42'0 0.3
2017-Nov-02 06:00N 41°11' W 008°42'4 8.8
2017-Nov-02 05:30N 41°06' W 008°43'6 1.0
2017-Nov-02 00:03N 41°01' W 008°44'1 8.7
2017-Nov-01 23:59N 41°02' W 008°44'4 8.6
2017-Nov-01 23:30N 41°06' W 008°43'4 8.8
2017-Nov-01 23:00N 41°10' W 008°42'1 2.0
2017-Nov-01 22:30N 41°11' W 008°42'0 0.0
2017-Oct-31 17:00N 41°11' W 008°42'0 0.0
2017-Oct-31 10:45N 41°11' W 008°42'0 0.1
2017-Oct-31 10:31N 41°11' W 008°42'0 0.0
2017-Oct-31 10:00N 41°11' W 008°42'0 0.0
2017-Oct-31 09:30N 41°11' W 008°42'0 0.0
2017-Oct-31 09:00N 41°11' W 008°42'0 0.0
2017-Oct-31 08:30N 41°11' W 008°42'3 6.2
2017-Oct-31 08:00N 41°08' W 008°42'  
Track history (hours):
 
Tides and Currents Weather Stations Pressure Air Temp Water Temp Dewpoint Dewpoint Depression Visibility Wind Speed Wind Dir Waves Ship Positions

Pesca Real

Last reported at 2017-Nov-07 15:23 UTC. Time now 2017-Nov-20 13:58 UTC.
Position N 41°16' W 008°45'.
Warning: this ship's position is 12 days out of date.

Length 11 m.

Type: Fishing. MMSI: 263267000.

Date/timePositionNaut miles runAvg speedWind from/ knotsBaromVisibWave heightAir tempDewpointWater temp
2017-Nov-07 15:23N 41°16' W 008°45'3 8.7
2017-Nov-07 15:01N 41°13' W 008°44'4 8.8
2017-Nov-07 14:30N 41°09' W 008°43'10 0.7
2017-Nov-06 23:51N 40°59' W 008°41'3 9.0
2017-Nov-06 23:31N 41°03' W 008°41'5 9.2
2017-Nov-06 23:01N 41°07' W 008°42'4 7.6
2017-Nov-06 22:31N 41°11' W 008°42'9 0.4
2017-Nov-06 00:44N 41°02' W 008°43'2 9.6
2017-Nov-06 00:30N 41°04' W 008°43'5 9.5
2017-Nov-06 00:00N 41°09' W 008°42'2 3.5
2017-Nov-05 23:30N 41°11' W 008°42'  
2017-Nov-03 09:06N 41°11' W 008°42'0 0.0
2017-Nov-03 09:00N 41°11' W 008°42'0 0.0
2017-Nov-03 08:30N 41°11' W 008°42'0 0.0
2017-Nov-03 08:00N 41°11' W 008°42'0 0.0
2017-Nov-03 07:30N 41°11' W 008°42'0 0.0
2017-Nov-03 07:00N 41°11' W 008°42'0 0.0
2017-Nov-03 06:30N 41°11' W 008°42'0 0.0
2017-Nov-03 06:00N 41°11' W 008°42'0 0.0
2017-Nov-03 05:30N 41°11' W 008°42'0 0.0
2017-Nov-03 05:00N 41°11' W 008°42'0 0.0
2017-Nov-03 04:31N 41°11' W 008°42'1 2.2
2017-Nov-03 04:00N 41°10' W 008°42'9 2.0
2017-Nov-02 23:29N 41°01' W 008°42'4 8.5
2017-Nov-02 23:00N 41°05' W 008°43'4 8.5
2017-Nov-02 22:31N 41°09' W 008°43'2 3.6
2017-Nov-02 22:00N 41°11' W 008°42'0 0.0
2017-Nov-02 08:28N 41°11' W 008°42'0 0.0
2017-Nov-02 08:01N 41°11' W 008°42'0 0.0
2017-Nov-02 07:31N 41°11' W 008°42'0 0.0
2017-Nov-02 07:00N 41°11' W 008°42'0 0.0
2017-Nov-02 06:30N 41°11' W 008°42'0 0.3
2017-Nov-02 06:00N 41°11' W 008°42'4 8.8
2017-Nov-02 05:30N 41°06' W 008°43'6 1.0
2017-Nov-02 00:03N 41°01' W 008°44'1 8.7
2017-Nov-01 23:59N 41°02' W 008°44'4 8.6
2017-Nov-01 23:30N 41°06' W 008°43'4 8.8
2017-Nov-01 23:00N 41°10' W 008°42'1 2.0
2017-Nov-01 22:30N 41°11' W 008°42'0 0.0
2017-Oct-31 17:00N 41°11' W 008°42'0 0.0
2017-Oct-31 10:45N 41°11' W 008°42'0 0.1
2017-Oct-31 10:31N 41°11' W 008°42'0 0.0
2017-Oct-31 10:00N 41°11' W 008°42'0 0.0
2017-Oct-31 09:30N 41°11' W 008°42'0 0.0
2017-Oct-31 09:00N 41°11' W 008°42'0 0.0
2017-Oct-31 08:30N 41°11' W 008°42'3 6.2
2017-Oct-31 08:00N 41°08' W 008°42'  

Dump ship's entire track history